createdAt,value
2023-02-23T00:00:50.912Z,67.10
2023-02-23T00:01:51.112Z,67.10
2023-02-23T00:02:51.357Z,67.00
2023-02-23T00:03:51.440Z,66.79
2023-02-23T00:04:51.631Z,66.79
2023-02-23T00:05:51.788Z,67.00
2023-02-23T00:06:52.184Z,67.00
2023-02-23T00:07:52.188Z,66.89
2023-02-23T00:08:52.365Z,67.00
2023-02-23T00:09:52.531Z,67.00
2023-02-23T00:10:52.703Z,66.79
2023-02-23T00:11:52.879Z,66.89
2023-02-23T00:12:52.992Z,67.10
2023-02-23T00:13:53.203Z,67.20
2023-02-23T00:14:53.404Z,67.20
2023-02-23T00:15:53.557Z,67.41
2023-02-23T00:16:53.730Z,67.51
2023-02-23T00:17:53.910Z,67.20
2023-02-23T00:18:54.165Z,67.51
2023-02-23T00:19:54.290Z,67.41
2023-02-23T00:20:54.437Z,67.51
2023-02-23T00:21:54.655Z,67.20
2023-02-23T00:22:54.802Z,67.20
2023-02-23T00:23:54.969Z,67.20
2023-02-23T00:24:55.164Z,67.00
2023-02-23T00:25:55.323Z,67.20
2023-02-23T00:26:55.531Z,67.20
2023-02-23T00:27:55.670Z,67.20
2023-02-23T00:28:55.865Z,67.20
2023-02-23T00:29:56.156Z,67.41
2023-02-23T00:30:56.960Z,67.20
2023-02-23T00:31:56.515Z,67.20
2023-02-23T00:32:56.566Z,67.10
2023-02-23T00:33:56.745Z,67.20
2023-02-23T00:34:56.933Z,67.10
2023-02-23T00:35:57.091Z,67.20
2023-02-23T00:36:57.454Z,67.00
2023-02-23T00:37:57.444Z,66.89
2023-02-23T00:38:57.653Z,67.00
2023-02-23T00:39:57.821Z,67.10
2023-02-23T00:40:58.047Z,67.10
2023-02-23T00:41:58.144Z,67.10
2023-02-23T00:42:58.338Z,67.00
2023-02-23T00:43:58.531Z,67.20
2023-02-23T00:44:58.694Z,67.10
2023-02-23T00:45:58.931Z,67.30
2023-02-23T00:46:59.016Z,67.10
2023-02-23T00:47:59.183Z,67.00
2023-02-23T00:48:59.362Z,67.20
2023-02-23T00:49:59.555Z,67.10
2023-02-23T00:50:59.708Z,67.00
2023-02-23T00:51:59.884Z,67.10
2023-02-23T00:53:00.095Z,67.30
2023-02-23T00:54:00.240Z,67.51
2023-02-23T00:55:00.405Z,67.30
2023-02-23T00:56:00.565Z,67.61
2023-02-23T00:57:00.818Z,67.51
2023-02-23T00:58:00.924Z,67.30
2023-02-23T00:59:01.119Z,67.41
2023-02-23T01:00:01.411Z,67.51
2023-02-23T01:01:01.504Z,67.61
2023-02-23T01:02:01.663Z,67.82
2023-02-23T01:03:01.846Z,67.71
2023-02-23T01:04:02.001Z,67.82
2023-02-23T01:05:02.190Z,67.85
2023-02-23T01:06:02.344Z,67.85
2023-02-23T01:07:02.595Z,67.85
2023-02-23T01:08:02.710Z,68.05
2023-02-23T01:09:02.955Z,68.16
2023-02-23T01:10:03.087Z,68.16
2023-02-23T01:11:03.262Z,68.05
2023-02-23T01:12:03.499Z,68.26
2023-02-23T01:13:03.585Z,68.16
2023-02-23T01:14:03.780Z,68.05
2023-02-23T01:15:04.019Z,68.05
2023-02-23T01:16:04.161Z,68.26
2023-02-23T01:17:04.286Z,68.46
2023-02-23T01:18:04.475Z,68.57
2023-02-23T01:19:04.654Z,68.57
2023-02-23T01:20:04.843Z,68.57
2023-02-23T01:21:04.977Z,68.57
2023-02-23T01:22:05.174Z,68.67
2023-02-23T01:23:05.352Z,68.77
2023-02-23T01:24:05.532Z,68.67
2023-02-23T01:25:05.726Z,68.88
2023-02-23T01:26:05.881Z,68.88
2023-02-23T01:27:06.067Z,68.98
2023-02-23T01:28:06.244Z,68.98
2023-02-23T01:29:06.430Z,68.98
2023-02-23T01:30:06.630Z,69.09
2023-02-23T01:31:06.895Z,69.09
2023-02-23T01:32:07.068Z,69.01
2023-02-23T01:33:07.123Z,69.01
2023-02-23T01:34:07.313Z,69.18
2023-02-23T01:35:07.511Z,69.09
2023-02-23T01:36:07.660Z,69.18
2023-02-23T01:37:07.835Z,68.98
2023-02-23T01:38:08.020Z,68.98
2023-02-23T01:39:08.206Z,69.09
2023-02-23T01:40:08.436Z,69.12
2023-02-23T01:41:08.603Z,69.29
2023-02-23T01:42:08.752Z,69.29
2023-02-23T01:43:08.922Z,69.18
2023-02-23T01:44:09.182Z,69.18
2023-02-23T01:45:09.320Z,69.09
2023-02-23T01:46:09.496Z,69.09
2023-02-23T01:47:09.725Z,69.42
2023-02-23T01:48:09.825Z,69.29
2023-02-23T01:49:10.027Z,69.29
2023-02-23T01:50:10.204Z,69.18
2023-02-23T01:51:10.352Z,69.18
2023-02-23T01:52:10.532Z,69.18
2023-02-23T01:53:10.737Z,69.18
2023-02-23T01:54:10.881Z,69.29
2023-02-23T01:55:11.189Z,69.32
2023-02-23T01:56:11.237Z,69.22
2023-02-23T01:57:11.436Z,69.22
2023-02-23T01:58:11.638Z,69.29
2023-02-23T01:59:11.775Z,69.22
2023-02-23T02:00:11.962Z,69.42
2023-02-23T02:01:12.210Z,69.32
2023-02-23T02:02:12.290Z,69.32
2023-02-23T02:03:12.485Z,69.53
2023-02-23T02:04:12.701Z,69.84
2023-02-23T02:05:12.955Z,69.73
2023-02-23T02:06:13.000Z,69.53
2023-02-23T02:07:13.204Z,69.42
2023-02-23T02:08:13.350Z,69.32
2023-02-23T02:09:13.542Z,69.53
2023-02-23T02:10:13.730Z,69.53
2023-02-23T02:11:13.899Z,69.53
2023-02-23T02:12:14.042Z,69.63
2023-02-23T02:13:14.321Z,69.53
2023-02-23T02:14:14.419Z,69.42
2023-02-23T02:15:14.708Z,69.53
2023-02-23T02:16:14.852Z,69.73
2023-02-23T02:17:14.961Z,69.63
2023-02-23T02:18:15.152Z,69.63
2023-02-23T02:19:15.302Z,69.53
2023-02-23T02:20:15.501Z,69.53
2023-02-23T02:21:15.834Z,69.84
2023-02-23T02:22:15.835Z,69.94
2023-02-23T02:23:16.028Z,69.84
2023-02-23T02:24:16.243Z,69.73
2023-02-23T02:25:16.384Z,69.94
2023-02-23T02:26:16.572Z,69.94
2023-02-23T02:27:16.766Z,69.94
2023-02-23T02:28:16.900Z,69.94
2023-02-23T02:29:17.094Z,69.84
2023-02-23T02:30:17.286Z,69.94
2023-02-23T02:31:17.970Z,69.94
2023-02-23T02:32:17.744Z,69.94
2023-02-23T02:33:17.822Z,70.04
2023-02-23T02:34:17.968Z,70.14
2023-02-23T02:35:18.158Z,70.04
2023-02-23T02:36:18.380Z,70.25
2023-02-23T02:37:18.547Z,70.04
2023-02-23T02:38:18.698Z,70.18
2023-02-23T02:39:18.868Z,70.38
2023-02-23T02:40:19.029Z,70.59
2023-02-23T02:41:19.517Z,70.28
2023-02-23T02:42:19.357Z,70.28
2023-02-23T02:43:19.537Z,70.45
2023-02-23T02:44:19.795Z,70.25
2023-02-23T02:45:19.903Z,70.38
2023-02-23T02:46:20.115Z,70.38
2023-02-23T02:47:20.344Z,70.48
2023-02-23T02:48:20.437Z,70.38
2023-02-23T02:49:20.634Z,70.38
2023-02-23T02:50:20.820Z,70.48
2023-02-23T02:51:21.317Z,70.48
2023-02-23T02:52:21.122Z,70.59
2023-02-23T02:53:21.326Z,70.69
2023-02-23T02:54:21.469Z,70.90
2023-02-23T02:55:21.633Z,70.69
2023-02-23T02:56:21.850Z,70.59
2023-02-23T02:57:21.979Z,70.79
2023-02-23T02:58:22.160Z,70.59
2023-02-23T02:59:22.351Z,70.69
2023-02-23T03:00:22.511Z,70.79
2023-02-23T03:01:22.746Z,70.79
2023-02-23T03:02:22.840Z,70.79
2023-02-23T03:03:23.021Z,70.59
2023-02-23T03:04:23.216Z,70.69
2023-02-23T03:05:23.434Z,70.59
2023-02-23T03:06:23.598Z,70.59
2023-02-23T03:07:23.769Z,70.59
2023-02-23T03:08:23.943Z,70.59
2023-02-23T03:09:24.107Z,70.90
2023-02-23T03:10:24.261Z,70.90
2023-02-23T03:11:24.537Z,70.79
2023-02-23T03:12:24.631Z,70.79
2023-02-23T03:13:24.810Z,70.79
2023-02-23T03:14:25.027Z,70.69
2023-02-23T03:15:25.140Z,70.69
2023-02-23T03:16:25.427Z,70.59
2023-02-23T03:17:25.540Z,70.59
2023-02-23T03:18:25.678Z,70.59
2023-02-23T03:19:25.839Z,70.90
2023-02-23T03:20:26.092Z,70.79
2023-02-23T03:21:26.212Z,70.79
2023-02-23T03:22:26.365Z,70.79
2023-02-23T03:23:26.551Z,70.69
2023-02-23T03:24:26.704Z,70.90
2023-02-23T03:25:26.867Z,70.90
2023-02-23T03:26:27.040Z,71.03
2023-02-23T03:27:27.204Z,71.14
2023-02-23T03:28:27.368Z,71.24
2023-02-23T03:29:27.608Z,71.24
2023-02-23T03:30:27.740Z,71.24
2023-02-23T03:31:27.902Z,71.24
2023-02-23T03:32:28.096Z,71.34
2023-02-23T03:33:28.203Z,71.34
2023-02-23T03:34:28.365Z,71.44
2023-02-23T03:35:28.526Z,71.44
2023-02-23T03:36:28.698Z,71.34
2023-02-23T03:37:28.858Z,71.34
2023-02-23T03:38:29.016Z,71.34
2023-02-23T03:39:29.178Z,71.34
2023-02-23T03:40:29.338Z,71.44
2023-02-23T03:41:29.532Z,71.44
2023-02-23T03:42:29.656Z,71.34
2023-02-23T03:43:29.915Z,71.44
2023-02-23T03:44:30.030Z,71.44
2023-02-23T03:45:30.238Z,71.44
2023-02-23T03:46:30.420Z,71.65
2023-02-23T03:47:30.546Z,71.65
2023-02-23T03:48:30.707Z,71.65
2023-02-23T03:49:30.957Z,71.65
2023-02-23T03:50:31.041Z,71.65
2023-02-23T03:51:31.246Z,71.78
2023-02-23T03:52:31.429Z,71.65
2023-02-23T03:53:31.559Z,71.65
2023-02-23T03:54:31.729Z,71.69
2023-02-23T03:55:31.928Z,71.65
2023-02-23T03:56:32.090Z,71.65
2023-02-23T03:57:32.263Z,71.69
2023-02-23T03:58:32.448Z,71.69
2023-02-23T03:59:32.627Z,71.78
2023-02-23T04:00:32.776Z,71.78
2023-02-23T04:01:32.978Z,71.78
2023-02-23T04:02:33.167Z,71.89
2023-02-23T04:03:33.361Z,71.78
2023-02-23T04:04:33.493Z,71.89
2023-02-23T04:05:33.692Z,71.89
2023-02-23T04:06:33.864Z,71.89
2023-02-23T04:07:34.029Z,71.99
2023-02-23T04:08:34.211Z,71.89
2023-02-23T04:09:34.372Z,71.99
2023-02-23T04:10:34.531Z,71.89
2023-02-23T04:11:34.821Z,71.99
2023-02-23T04:12:34.862Z,71.99
2023-02-23T04:13:35.027Z,71.99
2023-02-23T04:14:35.264Z,71.89
2023-02-23T04:15:35.351Z,71.89
2023-02-23T04:16:35.533Z,71.89
2023-02-23T04:17:35.747Z,71.89
2023-02-23T04:18:35.873Z,71.89
2023-02-23T04:19:36.040Z,71.89
2023-02-23T04:20:36.258Z,71.78
2023-02-23T04:21:36.391Z,71.78
2023-02-23T04:22:36.550Z,71.99
2023-02-23T04:23:36.763Z,71.99
2023-02-23T04:24:36.882Z,71.89
2023-02-23T04:25:37.048Z,71.99
2023-02-23T04:26:37.224Z,72.09
2023-02-23T04:27:37.396Z,72.30
2023-02-23T04:28:37.571Z,72.30
2023-02-23T04:29:37.742Z,72.41
2023-02-23T04:30:38.042Z,72.51
2023-02-23T04:31:38.197Z,72.54
2023-02-23T04:32:38.342Z,72.54
2023-02-23T04:33:38.409Z,72.54
2023-02-23T04:34:38.561Z,72.54
2023-02-23T04:35:38.733Z,72.54
2023-02-23T04:36:38.904Z,72.64
2023-02-23T04:37:39.069Z,72.75
2023-02-23T04:38:39.231Z,72.64
2023-02-23T04:39:39.404Z,72.75
2023-02-23T04:40:39.570Z,72.75
2023-02-23T04:41:39.752Z,72.75
2023-02-23T04:42:39.912Z,72.75
2023-02-23T04:43:40.093Z,72.75
2023-02-23T04:44:40.339Z,72.75
2023-02-23T04:45:40.435Z,72.64
2023-02-23T04:46:40.670Z,72.54
2023-02-23T04:47:40.777Z,72.44
2023-02-23T04:48:40.900Z,72.44
2023-02-23T04:49:41.104Z,72.54
2023-02-23T04:50:41.253Z,72.54
2023-02-23T04:51:41.437Z,72.44
2023-02-23T04:52:41.598Z,72.54
2023-02-23T04:53:41.753Z,72.54
2023-02-23T04:54:41.918Z,72.75
2023-02-23T04:55:42.098Z,72.75
2023-02-23T04:56:42.262Z,72.64
2023-02-23T04:57:42.499Z,72.75
2023-02-23T04:58:42.612Z,72.75
2023-02-23T04:59:42.784Z,72.54
2023-02-23T05:00:43.026Z,72.54
2023-02-23T05:01:43.201Z,72.54
2023-02-23T05:02:43.289Z,72.64
2023-02-23T05:03:43.478Z,72.54
2023-02-23T05:04:43.643Z,72.54
2023-02-23T05:05:43.805Z,72.64
2023-02-23T05:06:43.969Z,72.75
2023-02-23T05:07:44.234Z,72.75
2023-02-23T05:08:44.301Z,72.64
2023-02-23T05:09:44.461Z,72.64
2023-02-23T05:10:44.663Z,72.75
2023-02-23T05:11:44.800Z,72.78
2023-02-23T05:12:44.961Z,72.88
2023-02-23T05:13:45.249Z,72.99
2023-02-23T05:14:45.308Z,72.99
2023-02-23T05:15:45.530Z,72.99
2023-02-23T05:16:45.670Z,73.09
2023-02-23T05:17:45.830Z,73.09
2023-02-23T05:18:45.995Z,72.99
2023-02-23T05:19:46.161Z,72.88
2023-02-23T05:20:46.337Z,72.99
2023-02-23T05:21:46.492Z,72.99
2023-02-23T05:22:46.660Z,72.99
2023-02-23T05:23:46.821Z,72.99
2023-02-23T05:24:46.988Z,72.88
2023-02-23T05:25:47.237Z,72.88
2023-02-23T05:26:47.345Z,72.88
2023-02-23T05:27:47.511Z,73.09
2023-02-23T05:28:47.683Z,72.99
2023-02-23T05:29:47.844Z,72.99
2023-02-23T05:30:48.091Z,72.99
2023-02-23T05:31:48.319Z,72.99
2023-02-23T05:32:48.359Z,72.99
2023-02-23T05:33:48.526Z,73.09
2023-02-23T05:34:48.693Z,73.09
2023-02-23T05:35:48.872Z,73.19
2023-02-23T05:36:49.050Z,73.43
2023-02-23T05:37:49.211Z,73.43
2023-02-23T05:38:49.375Z,73.43
2023-02-23T05:39:49.620Z,73.54
2023-02-23T05:40:49.697Z,73.54
2023-02-23T05:41:49.876Z,73.54
2023-02-23T05:42:50.100Z,73.54
2023-02-23T05:43:50.204Z,73.64
2023-02-23T05:44:50.384Z,73.85
2023-02-23T05:45:50.720Z,73.85
2023-02-23T05:46:50.754Z,73.85
2023-02-23T05:47:50.893Z,73.74
2023-02-23T05:48:51.099Z,73.74
2023-02-23T05:49:51.242Z,73.64
2023-02-23T05:50:51.393Z,73.64
2023-02-23T05:51:51.625Z,73.64
2023-02-23T05:52:51.754Z,73.64
2023-02-23T05:53:51.934Z,73.54
2023-02-23T05:54:52.124Z,73.43
2023-02-23T05:55:52.341Z,73.54
2023-02-23T05:56:52.490Z,73.54
2023-02-23T05:57:52.638Z,73.64
2023-02-23T05:58:52.905Z,73.64
2023-02-23T05:59:52.982Z,73.54
2023-02-23T06:00:53.165Z,73.64
2023-02-23T06:01:53.454Z,73.64
2023-02-23T06:02:53.628Z,73.64
2023-02-23T06:03:53.749Z,73.64
2023-02-23T06:04:53.939Z,73.43
2023-02-23T06:05:54.055Z,73.54
2023-02-23T06:06:54.251Z,73.64
2023-02-23T06:07:54.436Z,73.74
2023-02-23T06:08:54.565Z,73.85
2023-02-23T06:09:54.732Z,73.85
2023-02-23T06:10:54.893Z,73.74
2023-02-23T06:11:55.089Z,73.74
2023-02-23T06:12:55.256Z,73.74
2023-02-23T06:13:55.421Z,73.85
2023-02-23T06:14:55.581Z,73.95
2023-02-23T06:15:55.865Z,74.05
2023-02-23T06:16:56.056Z,74.05
2023-02-23T06:17:56.122Z,73.95
2023-02-23T06:18:56.292Z,73.85
2023-02-23T06:19:56.465Z,73.74
2023-02-23T06:20:56.678Z,73.74
2023-02-23T06:21:56.814Z,73.64
2023-02-23T06:22:57.063Z,73.54
2023-02-23T06:23:57.155Z,73.54
2023-02-23T06:24:57.332Z,73.33
2023-02-23T06:25:57.488Z,73.22
2023-02-23T06:26:57.676Z,73.19
2023-02-23T06:27:57.830Z,73.19
2023-02-23T06:28:58.008Z,73.19
2023-02-23T06:29:58.180Z,73.09
2023-02-23T06:30:58.488Z,72.99
2023-02-23T06:32:00.725Z,72.78
2023-02-23T06:32:58.719Z,72.67
2023-02-23T06:33:58.901Z,72.67
2023-02-23T06:34:59.070Z,72.54
2023-02-23T06:35:59.298Z,72.33
2023-02-23T06:36:59.443Z,72.33
2023-02-23T06:37:59.604Z,72.33
2023-02-23T06:38:59.863Z,72.23
2023-02-23T06:39:59.939Z,72.13
2023-02-23T06:41:00.123Z,72.03
2023-02-23T06:42:00.399Z,71.82
2023-02-23T06:43:00.474Z,71.72
2023-02-23T06:44:00.670Z,71.69
2023-02-23T06:45:00.831Z,71.78
2023-02-23T06:46:01.011Z,71.58
2023-02-23T06:47:01.209Z,71.37
2023-02-23T06:48:01.364Z,71.48
2023-02-23T06:49:01.566Z,71.58
2023-02-23T06:50:01.716Z,71.37
2023-02-23T06:51:01.924Z,71.17
2023-02-23T06:52:02.072Z,71.27
2023-02-23T06:53:02.269Z,71.17
2023-02-23T06:54:02.394Z,71.06
2023-02-23T06:55:02.583Z,70.96
2023-02-23T06:56:02.774Z,71.14
2023-02-23T06:57:02.939Z,70.93
2023-02-23T06:58:03.099Z,71.03
2023-02-23T06:59:03.259Z,70.83
2023-02-23T07:00:03.420Z,70.62
2023-02-23T07:01:03.607Z,70.52
2023-02-23T07:02:03.860Z,70.52
2023-02-23T07:03:03.936Z,70.52
2023-02-23T07:04:04.111Z,70.42
2023-02-23T07:05:04.319Z,70.72
2023-02-23T07:06:04.428Z,70.62
2023-02-23T07:07:04.638Z,70.48
2023-02-23T07:08:04.800Z,70.18
2023-02-23T07:09:04.954Z,70.18
2023-02-23T07:10:05.139Z,70.07
2023-02-23T07:11:05.331Z,70.38
2023-02-23T07:12:05.503Z,70.38
2023-02-23T07:13:05.652Z,70.28
2023-02-23T07:14:07.702Z,69.87
2023-02-23T07:15:06.034Z,69.66
2023-02-23T07:16:06.246Z,69.73
2023-02-23T07:17:06.391Z,69.73
2023-02-23T07:18:06.595Z,69.63
2023-02-23T07:19:06.752Z,69.73
2023-02-23T07:20:06.925Z,69.32
2023-02-23T07:21:07.165Z,69.63
2023-02-23T07:22:07.318Z,69.22
2023-02-23T07:23:07.481Z,69.12
2023-02-23T07:24:07.715Z,68.98
2023-02-23T07:25:07.870Z,68.98
2023-02-23T07:26:08.033Z,69.09
2023-02-23T07:27:08.236Z,68.88
2023-02-23T07:28:08.402Z,68.57
2023-02-23T07:29:08.584Z,68.67
2023-02-23T07:30:08.745Z,68.57
2023-02-23T07:31:08.901Z,68.37
2023-02-23T07:32:09.151Z,68.43
2023-02-23T07:33:09.239Z,67.92
2023-02-23T07:34:09.431Z,67.92
2023-02-23T07:35:09.594Z,67.71
2023-02-23T07:36:09.749Z,67.92
2023-02-23T07:37:09.990Z,67.71
2023-02-23T07:38:10.082Z,67.41
2023-02-23T07:39:10.248Z,67.71
2023-02-23T07:40:10.394Z,67.82
2023-02-23T07:41:10.582Z,67.79
2023-02-23T07:42:10.753Z,67.48
2023-02-23T07:43:10.910Z,66.96
2023-02-23T07:44:11.104Z,67.27
2023-02-23T07:45:11.292Z,67.38
2023-02-23T07:46:11.456Z,67.24
2023-02-23T07:47:11.658Z,67.03
2023-02-23T07:48:11.803Z,66.63
2023-02-23T07:49:11.994Z,66.42
2023-02-23T07:50:12.149Z,66.22
2023-02-23T07:51:12.341Z,66.08
2023-02-23T07:52:12.540Z,65.98
2023-02-23T07:53:12.722Z,65.77
2023-02-23T07:54:12.874Z,65.47
2023-02-23T07:55:13.093Z,65.77
2023-02-23T07:56:13.220Z,65.47
2023-02-23T07:57:13.428Z,65.36
2023-02-23T07:58:13.620Z,65.44
2023-02-23T07:59:13.734Z,65.23
2023-02-23T08:00:13.914Z,65.23
2023-02-23T08:01:14.202Z,65.23
2023-02-23T08:02:14.247Z,65.12
2023-02-23T08:03:14.396Z,64.72
2023-02-23T08:04:14.749Z,64.89
2023-02-23T08:05:14.715Z,65.00
2023-02-23T08:06:14.909Z,64.38
2023-02-23T08:07:15.116Z,64.28
2023-02-23T08:08:15.260Z,64.61
2023-02-23T08:09:15.454Z,64.92
2023-02-23T08:10:15.611Z,65.20
2023-02-23T08:11:15.837Z,64.79
2023-02-23T08:12:16.013Z,64.38
2023-02-23T08:13:16.164Z,64.48
2023-02-23T08:14:16.324Z,64.59
2023-02-23T08:15:16.494Z,64.45
2023-02-23T08:16:16.718Z,64.14
2023-02-23T08:17:16.843Z,64.25
2023-02-23T08:18:17.012Z,63.84
2023-02-23T08:19:17.183Z,63.81
2023-02-23T08:20:17.366Z,63.70
2023-02-23T08:21:17.658Z,63.70
2023-02-23T08:22:17.720Z,63.81
2023-02-23T08:23:17.906Z,63.50
2023-02-23T08:24:18.003Z,62.76
2023-02-23T08:25:18.220Z,62.68
2023-02-23T08:26:18.405Z,63.40
2023-02-23T08:27:18.574Z,63.09
2023-02-23T08:28:18.761Z,62.99
2023-02-23T08:29:18.897Z,63.37
2023-02-23T08:30:19.051Z,63.06
2023-02-23T08:31:19.707Z,62.65
2023-02-23T08:32:19.441Z,62.55
2023-02-23T08:33:19.617Z,62.45
2023-02-23T08:34:19.736Z,62.24
2023-02-23T08:35:19.907Z,62.14
2023-02-23T08:36:20.063Z,62.14
2023-02-23T08:37:20.241Z,62.14
2023-02-23T08:38:20.393Z,62.14
2023-02-23T08:39:20.642Z,62.04
2023-02-23T08:40:20.772Z,62.24
2023-02-23T08:41:21.279Z,62.35
2023-02-23T08:42:21.172Z,62.52
2023-02-23T08:43:21.250Z,62.52
2023-02-23T08:44:21.436Z,62.59
2023-02-23T08:45:21.622Z,62.39
2023-02-23T08:46:21.806Z,61.88
2023-02-23T08:47:21.976Z,61.65
2023-02-23T08:48:22.135Z,61.34
2023-02-23T08:49:22.290Z,61.65
2023-02-23T08:50:22.447Z,61.75
2023-02-23T08:51:22.608Z,61.31
2023-02-23T08:52:22.790Z,60.90
2023-02-23T08:53:22.943Z,60.90
2023-02-23T08:54:23.109Z,61.21
2023-02-23T08:55:23.296Z,60.57
2023-02-23T08:56:23.451Z,60.97
2023-02-23T08:57:23.642Z,60.97
2023-02-23T08:58:23.827Z,60.85
2023-02-23T08:59:23.955Z,60.74
2023-02-23T09:00:24.196Z,60.82
2023-02-23T09:01:24.309Z,60.10
2023-02-23T09:02:24.457Z,60.00
2023-02-23T09:03:24.606Z,59.46
2023-02-23T09:04:24.756Z,59.46
2023-02-23T09:05:25.050Z,59.26
2023-02-23T09:06:25.148Z,58.72
2023-02-23T09:07:25.353Z,58.72
2023-02-23T09:08:25.505Z,58.21
2023-02-23T09:09:25.660Z,58.41
2023-02-23T09:10:25.900Z,58.59
2023-02-23T09:11:26.002Z,58.39
2023-02-23T09:12:26.167Z,58.26
2023-02-23T09:13:26.314Z,57.14
2023-02-23T09:14:26.479Z,57.54
2023-02-23T09:15:26.636Z,56.29
2023-02-23T09:16:26.803Z,55.71
2023-02-23T09:17:27.025Z,56.02
2023-02-23T09:18:27.166Z,56.32
2023-02-23T09:19:27.337Z,56.40
2023-02-23T09:20:27.497Z,56.09
2023-02-23T09:21:27.675Z,56.16
2023-02-23T09:22:27.853Z,55.96
2023-02-23T09:23:28.011Z,55.43
2023-02-23T09:24:28.174Z,55.40
2023-02-23T09:25:28.405Z,55.18
2023-02-23T09:26:28.515Z,53.93
2023-02-23T09:27:28.694Z,53.50
2023-02-23T09:28:30.182Z,52.46
2023-02-23T09:29:29.025Z,51.85
2023-02-23T09:30:29.231Z,51.93
2023-02-23T09:31:29.382Z,51.52
2023-02-23T09:32:29.543Z,50.89
2023-02-23T09:33:29.730Z,50.34
2023-02-23T09:34:29.853Z,49.60
2023-02-23T09:35:30.050Z,49.78
2023-02-23T09:36:30.192Z,49.96
2023-02-23T09:37:30.367Z,48.22
2023-02-23T09:38:30.535Z,48.02
2023-02-23T09:39:37.986Z,48.10
2023-02-23T09:40:31.871Z,47.87
2023-02-23T09:41:31.034Z,47.14
2023-02-23T09:42:31.204Z,47.42
2023-02-23T09:43:31.391Z,46.69
2023-02-23T09:44:31.557Z,46.47
2023-02-23T09:45:31.715Z,46.93
2023-02-23T09:46:31.895Z,45.29
2023-02-23T09:47:32.065Z,43.96
2023-02-23T09:48:32.288Z,43.66
2023-02-23T09:49:32.422Z,43.95
2023-02-23T09:50:32.596Z,43.34
2023-02-23T09:51:32.785Z,43.22
2023-02-23T09:52:32.954Z,43.62
2023-02-23T09:53:34.127Z,43.50
2023-02-23T09:54:33.316Z,43.80
2023-02-23T09:55:33.498Z,44.20
2023-02-23T09:56:33.668Z,44.53
2023-02-23T09:57:33.827Z,45.05
2023-02-23T09:58:34.099Z,45.75
2023-02-23T09:59:34.169Z,45.37
2023-02-23T10:00:34.340Z,45.17
2023-02-23T10:01:34.558Z,46.50
2023-02-23T10:02:34.691Z,46.30
2023-02-23T10:03:34.896Z,46.33
2023-02-23T10:04:35.058Z,46.33
2023-02-23T10:05:35.230Z,46.14
2023-02-23T10:06:35.400Z,47.05
2023-02-23T10:07:35.573Z,47.38
2023-02-23T10:08:35.753Z,47.47
2023-02-23T10:09:35.927Z,47.90
2023-02-23T10:10:36.195Z,48.10
2023-02-23T10:11:38.445Z,48.22
2023-02-23T10:12:36.453Z,49.24
2023-02-23T10:13:36.643Z,48.83
2023-02-23T10:14:36.806Z,49.24
2023-02-23T10:15:37.038Z,49.33
2023-02-23T10:16:37.133Z,48.83
2023-02-23T10:17:37.303Z,48.63
2023-02-23T10:18:46.559Z,49.05
2023-02-23T10:19:38.674Z,49.16
2023-02-23T10:20:37.844Z,49.76
2023-02-23T10:21:38.013Z,50.07
2023-02-23T10:22:38.183Z,49.26
2023-02-23T10:23:38.366Z,48.85
2023-02-23T10:24:38.552Z,49.36
2023-02-23T10:25:38.716Z,49.46
2023-02-23T10:26:38.903Z,49.76
2023-02-23T10:27:39.063Z,50.07
2023-02-23T10:28:39.247Z,50.07
2023-02-23T10:29:39.501Z,50.07
2023-02-23T10:30:39.640Z,49.76
2023-02-23T10:31:39.816Z,49.66
2023-02-23T10:32:39.986Z,50.07
2023-02-23T10:33:40.125Z,50.16
2023-02-23T10:34:40.272Z,50.27
2023-02-23T10:35:40.455Z,50.27
2023-02-23T10:36:40.604Z,50.37
2023-02-23T10:37:40.762Z,50.67
2023-02-23T10:38:40.940Z,50.67
2023-02-23T10:39:41.093Z,50.78
2023-02-23T10:40:41.252Z,50.49
2023-02-23T10:41:41.404Z,50.29
2023-02-23T10:42:41.613Z,50.59
2023-02-23T10:43:41.798Z,50.80
2023-02-23T10:44:41.942Z,51.40
2023-02-23T10:45:42.131Z,50.80
2023-02-23T10:46:42.340Z,50.29
2023-02-23T10:47:42.470Z,50.39
2023-02-23T10:48:42.672Z,50.19
2023-02-23T10:49:42.817Z,50.49
2023-02-23T10:50:42.998Z,51.00
2023-02-23T10:51:43.146Z,50.39
2023-02-23T10:52:43.312Z,50.59
2023-02-23T10:53:43.495Z,50.70
2023-02-23T10:54:43.644Z,50.92
2023-02-23T10:55:43.804Z,51.23
2023-02-23T10:56:43.998Z,51.63
2023-02-23T10:57:44.183Z,51.81
2023-02-23T10:58:44.364Z,51.61
2023-02-23T10:59:44.506Z,51.61
2023-02-23T11:00:44.706Z,52.21
2023-02-23T11:02:00.500Z,52.21
2023-02-23T11:02:46.078Z,52.21
2023-02-23T11:03:46.899Z,52.31
2023-02-23T11:04:45.394Z,53.12
2023-02-23T11:05:45.574Z,53.96
2023-02-23T11:06:45.721Z,53.85
2023-02-23T11:07:45.902Z,53.55
2023-02-23T11:08:46.063Z,53.85
2023-02-23T11:09:48.100Z,54.05
2023-02-23T11:10:46.380Z,54.16
2023-02-23T11:11:46.531Z,54.56
2023-02-23T11:12:46.734Z,54.38
2023-02-23T11:13:46.900Z,54.36
2023-02-23T11:14:47.082Z,54.36
2023-02-23T11:15:50.902Z,54.36
2023-02-23T11:16:47.414Z,54.25
2023-02-23T11:17:47.570Z,54.36
2023-02-23T11:18:47.780Z,54.66
2023-02-23T11:19:47.922Z,54.86
2023-02-23T11:20:48.113Z,54.46
2023-02-23T11:21:48.271Z,54.23
2023-02-23T11:22:48.442Z,54.13
2023-02-23T11:23:48.611Z,54.03
2023-02-23T11:24:48.761Z,53.72
2023-02-23T11:25:49.573Z,53.93
2023-02-23T11:26:49.120Z,54.13
2023-02-23T11:27:49.267Z,54.03
2023-02-23T11:28:49.440Z,54.13
2023-02-23T11:29:49.589Z,54.10
2023-02-23T11:30:49.853Z,54.21
2023-02-23T11:31:50.090Z,53.90
2023-02-23T11:32:50.185Z,53.70
2023-02-23T11:33:50.343Z,53.50
2023-02-23T11:34:50.488Z,53.90
2023-02-23T11:35:50.630Z,53.60
2023-02-23T11:36:50.788Z,53.27
2023-02-23T11:37:50.955Z,53.78
2023-02-23T11:38:51.220Z,53.17
2023-02-23T11:39:51.264Z,52.14
2023-02-23T11:40:51.431Z,52.24
2023-02-23T11:41:51.607Z,52.47
2023-02-23T11:42:51.758Z,52.64
2023-02-23T11:43:51.933Z,52.54
2023-02-23T11:44:52.101Z,52.44
2023-02-23T11:45:52.316Z,52.44
2023-02-23T11:46:52.532Z,52.24
2023-02-23T11:47:52.585Z,52.14
2023-02-23T11:48:52.750Z,52.34
2023-02-23T11:49:52.895Z,52.34
2023-02-23T11:50:53.092Z,52.24
2023-02-23T11:51:53.241Z,52.54
2023-02-23T11:52:53.420Z,52.64
2023-02-23T11:53:53.578Z,52.87
2023-02-23T11:54:53.731Z,53.17
2023-02-23T11:55:53.892Z,52.76
2023-02-23T11:56:54.069Z,53.27
2023-02-23T11:57:54.217Z,53.47
2023-02-23T11:58:54.404Z,53.45
2023-02-23T11:59:54.560Z,53.14
2023-02-23T12:00:54.721Z,53.75
2023-02-23T12:01:54.891Z,53.25
2023-02-23T12:02:55.055Z,53.25
2023-02-23T12:03:55.212Z,53.45
2023-02-23T12:04:55.395Z,53.45
2023-02-23T12:05:55.537Z,53.52
2023-02-23T12:06:55.720Z,53.22
2023-02-23T12:07:55.854Z,53.22
2023-02-23T12:08:56.025Z,53.52
2023-02-23T12:09:56.176Z,53.22
2023-02-23T12:10:56.391Z,53.00
2023-02-23T12:11:56.550Z,52.80
2023-02-23T12:12:56.712Z,52.29
2023-02-23T12:13:56.879Z,52.59
2023-02-23T12:14:57.065Z,52.89
2023-02-23T12:15:57.206Z,52.69
2023-02-23T12:16:57.367Z,53.09
2023-02-23T12:17:57.519Z,52.69
2023-02-23T12:18:57.732Z,52.89
2023-02-23T12:19:57.882Z,52.80
2023-02-23T12:20:58.061Z,52.69
2023-02-23T12:21:58.187Z,52.89
2023-02-23T12:22:58.388Z,53.32
2023-02-23T12:23:58.570Z,53.12
2023-02-23T12:24:58.719Z,53.02
2023-02-23T12:25:58.869Z,53.22
2023-02-23T12:26:59.067Z,53.52
2023-02-23T12:28:07.609Z,53.52
2023-02-23T12:29:00.425Z,53.55
2023-02-23T12:29:59.556Z,53.85
2023-02-23T12:30:59.767Z,54.05
2023-02-23T12:32:00.019Z,54.25
2023-02-23T12:33:00.121Z,54.25
2023-02-23T12:34:00.289Z,54.16
2023-02-23T12:35:00.446Z,54.36
2023-02-23T12:36:00.613Z,54.46
2023-02-23T12:37:00.795Z,54.68
2023-02-23T12:38:00.992Z,54.99
2023-02-23T12:39:01.154Z,54.68
2023-02-23T12:40:01.325Z,54.99
2023-02-23T12:41:01.467Z,54.68
2023-02-23T12:42:01.632Z,54.66
2023-02-23T12:43:01.823Z,54.66
2023-02-23T12:44:02.001Z,54.96
2023-02-23T12:45:02.162Z,54.66
2023-02-23T12:46:02.395Z,54.76
2023-02-23T12:47:02.502Z,54.86
2023-02-23T12:48:02.655Z,54.86
2023-02-23T12:49:02.864Z,54.86
2023-02-23T12:50:03.038Z,54.86
2023-02-23T12:51:03.174Z,54.76
2023-02-23T12:52:03.331Z,54.96
2023-02-23T12:53:03.501Z,54.86
2023-02-23T12:54:03.661Z,54.83
2023-02-23T12:55:03.816Z,54.94